Time;durP1;ratioP1;P1;durP2;ratioP2;P2;SDS_P1;SDS_P2;PMS_P1;PMS_P2;Temp;Humidity;BMP_temperature;BMP_pressure;BME280_temperature;BME280_humidity;BME280_pressure;Samples;Min_cycle;Max_cycle;Signal;HPM_P1;HPM_P2
2022/02/19 00:01:03;;;;;;;12.37;2.03;;;6.40;76.70;;;;;;5054445;28;20025;-76
2022/02/19 00:03:29;;;;;;;20.17;2.37;;;6.40;76.90;;;;;;5054316;28;20036;-77
2022/02/19 00:05:55;;;;;;;13.70;2.03;;;6.30;77.60;;;;;;5035869;28;20025;-77
2022/02/19 00:08:22;;;;;;;12.77;1.70;;;6.20;76.60;;;;;;5036730;28;20083;-76
2022/02/19 00:10:47;;;;;;;18.93;2.33;;;6.30;76.80;;;;;;5054321;28;20033;-76
2022/02/19 00:13:13;;;;;;;20.43;2.53;;;6.30;76.60;;;;;;5054029;28;20032;-76
2022/02/19 00:15:39;;;;;;;15.23;1.80;;;6.20;77.10;;;;;;5053960;28;20477;-77
2022/02/19 00:18:05;;;;;;;15.73;1.93;;;6.30;76.60;;;;;;5053827;28;20044;-78
2022/02/19 00:20:32;;;;;;;14.37;1.53;;;6.30;76.90;;;;;;5053929;28;20036;-75
2022/02/19 00:22:58;;;;;;;21.70;3.30;;;6.30;76.60;;;;;;5052921;28;20040;-77
2022/02/19 00:25:24;;;;;;;17.73;1.77;;;6.30;76.80;;;;;;5053762;28;20099;-76
2022/02/19 00:27:49;;;;;;;13.90;1.63;;;6.30;77.00;;;;;;5052614;28;20456;-76
2022/02/19 00:30:15;;;;;;;17.37;1.67;;;6.30;76.80;;;;;;5019627;28;20021;-76
2022/02/19 00:32:41;;;;;;;13.30;1.97;;;6.30;77.10;;;;;;5035712;28;20477;-79
2022/02/19 00:35:07;;;;;;;17.43;1.70;;;6.30;77.50;;;;;;5053846;28;20044;-76
2022/02/19 00:37:32;;;;;;;16.83;1.97;;;6.20;77.70;;;;;;5035687;28;20474;-75
2022/02/19 00:39:59;;;;;;;13.77;1.93;;;6.20;77.40;;;;;;5035680;28;20051;-76
2022/02/19 00:42:25;;;;;;;10.87;2.17;;;6.30;77.90;;;;;;5053538;28;20036;-75
2022/02/19 00:44:50;;;;;;;15.77;2.47;;;6.40;78.60;;;;;;5053578;28;20029;-77
2022/02/19 00:47:16;;;;;;;12.90;1.63;;;6.20;78.60;;;;;;5035565;28;20031;-76
2022/02/19 00:49:41;;;;;;;20.27;2.30;;;6.20;78.80;;;;;;5052157;28;20033;-76
2022/02/19 00:52:07;;;;;;;10.63;3.00;;;6.20;79.40;;;;;;5053313;28;20071;-78
2022/02/19 00:54:33;;;;;;;15.97;1.93;;;6.20;79.70;;;;;;5052567;28;20033;-77
2022/02/19 00:56:59;;;;;;;13.97;2.20;;;6.20;80.30;;;;;;5035431;28;20099;-80
2022/02/19 00:59:25;;;;;;;18.00;2.67;;;6.20;80.90;;;;;;5051795;28;20505;-80
2022/02/19 01:01:50;;;;;;;13.53;2.40;;;6.10;80.40;;;;;;5053261;28;20560;-79
2022/02/19 01:04:16;;;;;;;13.57;1.93;;;6.20;81.10;;;;;;5035246;28;20025;-81
2022/02/19 01:06:42;;;;;;;14.53;2.90;;;6.10;81.40;;;;;;5035310;28;20029;-81
2022/02/19 01:09:08;;;;;;;17.17;2.00;;;6.20;82.10;;;;;;5053639;28;20028;-80
2022/02/19 01:11:39;;;;;;;18.13;2.77;;;6.20;81.40;;;;;;5053446;28;20381;-80
2022/02/19 01:14:06;;;;;;;19.43;2.77;;;6.10;81.90;;;;;;5052047;28;20036;-80
2022/02/19 01:16:31;;;;;;;19.60;2.00;;;6.20;81.20;;;;;;5052984;28;20029;-79
2022/02/19 01:18:57;;;;;;;13.13;1.83;;;6.20;81.00;;;;;;5056801;28;20527;-82
2022/02/19 01:21:22;;;;;;;13.13;1.80;;;6.20;81.40;;;;;;5056120;28;20116;-81
2022/02/19 01:23:48;;;;;;;25.50;2.97;;;6.20;80.90;;;;;;5056058;28;20112;-82
2022/02/19 01:26:14;;;;;;;11.17;1.73;;;6.20;80.80;;;;;;5039193;28;20033;-81
2022/02/19 01:28:39;;;;;;;11.10;2.03;;;6.20;80.70;;;;;;5055914;28;20029;-80
2022/02/19 01:31:05;;;;;;;19.37;2.00;;;6.20;80.40;;;;;;5039083;28;20059;-80
2022/02/19 01:33:32;;;;;;;12.90;2.10;;;6.20;80.20;;;;;;5039084;28;20127;-79
2022/02/19 01:35:57;;;;;;;15.80;1.67;;;6.20;80.70;;;;;;5038991;28;20507;-81
2022/02/19 01:38:24;;;;;;;13.67;2.43;;;6.20;80.10;;;;;;5039080;28;20112;-81
2022/02/19 01:40:51;;;;;;;13.43;1.53;;;6.20;80.20;;;;;;5039249;28;20021;-80
2022/02/19 01:43:16;;;;;;;17.43;1.97;;;6.20;79.90;;;;;;5057054;28;20438;-80
2022/02/19 01:45:46;;;;;;;11.37;1.80;;;6.10;79.40;;;;;;5055587;28;20061;-79
2022/02/19 01:48:12;;;;;;;10.03;2.03;;;6.20;79.00;;;;;;5056676;28;20029;-81
2022/02/19 01:50:38;;;;;;;11.70;1.17;;;6.10;78.60;;;;;;5038770;28;20035;-80
2022/02/19 01:53:03;;;;;;;12.90;1.50;;;6.20;78.60;;;;;;5055422;28;20037;-82
2022/02/19 01:55:29;;;;;;;10.13;1.63;;;6.10;77.90;;;;;;5055364;28;20043;-81
2022/02/19 01:57:56;;;;;;;10.20;1.30;;;6.10;77.80;;;;;;5056603;28;20025;-81
2022/02/19 02:00:22;;;;;;;12.57;1.93;;;6.10;77.50;;;;;;5055233;28;20131;-79
2022/02/19 02:02:49;;;;;;;11.93;1.43;;;6.10;76.70;;;;;;5055199;28;20496;-80
2022/02/19 02:05:14;;;;;;;12.23;1.27;;;6.20;76.20;;;;;;5038508;28;20082;-79
2022/02/19 02:07:40;;;;;;;10.97;2.60;;;6.10;76.40;;;;;;5055370;28;20120;-82
2022/02/19 02:10:07;;;;;;;12.50;1.63;;;6.10;77.10;;;;;;5038622;28;20126;-81
2022/02/19 02:12:34;;;;;;;7.63;1.00;;;6.10;76.10;;;;;;5038311;28;20175;-79
2022/02/19 02:15:00;;;;;;;12.10;1.40;;;6.10;76.00;;;;;;5056302;28;20112;-82
2022/02/19 02:17:26;;;;;;;10.60;1.10;;;6.10;75.90;;;;;;5056145;28;20485;-81
2022/02/19 02:19:51;;;;;;;14.70;1.27;;;6.10;76.10;;;;;;5056092;28;20500;-80
2022/02/19 02:22:17;;;;;;;16.67;1.23;;;6.10;76.30;;;;;;5056396;28;20044;-80
2022/02/19 02:24:43;;;;;;;17.20;2.17;;;6.10;76.00;;;;;;5038638;28;20123;-81
2022/02/19 02:27:12;;;;;;;14.80;2.10;;;6.00;75.90;;;;;;5038114;28;20548;-80
2022/02/19 02:29:41;;;;;;;10.37;1.50;;;6.10;75.80;;;;;;5054808;28;20028;-82
2022/02/19 02:32:07;;;;;;;13.37;2.53;;;6.10;75.50;;;;;;5054500;28;20041;-79
2022/02/19 02:34:32;;;;;;;11.80;1.50;;;6.10;75.50;;;;;;5054603;28;20043;-80
2022/02/19 02:36:58;;;;;;;11.23;1.23;;;6.10;75.70;;;;;;5054723;28;20547;-79
2022/02/19 02:39:24;;;;;;;10.67;1.20;;;6.10;75.30;;;;;;5054583;28;20059;-80
2022/02/19 02:41:49;;;;;;;13.00;1.10;;;6.10;75.60;;;;;;5054488;28;20029;-81
2022/02/19 02:44:15;;;;;;;7.70;0.87;;;6.10;75.80;;;;;;5055689;28;20033;-82
2022/02/19 02:46:41;;;;;;;12.60;1.53;;;6.10;76.30;;;;;;5055914;28;20033;-80
2022/02/19 02:49:06;;;;;;;14.73;1.50;;;6.10;75.70;;;;;;5054377;28;20044;-79
2022/02/19 02:51:32;;;;;;;8.37;1.20;;;6.20;75.60;;;;;;5054142;28;20163;-81
2022/02/19 02:53:57;;;;;;;8.90;0.83;;;6.10;76.50;;;;;;5037544;28;20036;-80
2022/02/19 02:56:23;;;;;;;16.37;1.57;;;6.10;75.50;;;;;;5055593;28;20033;-80
2022/02/19 02:58:48;;;;;;;12.87;2.07;;;6.10;75.30;;;;;;5055244;28;20040;-80
2022/02/19 03:01:14;;;;;;;10.07;1.03;;;6.20;75.50;;;;;;5055313;28;20035;-81
2022/02/19 03:03:40;;;;;;;12.37;1.33;;;6.10;75.50;;;;;;5055266;28;20116;-80
2022/02/19 03:06:05;;;;;;;10.23;1.33;;;6.10;75.30;;;;;;5037380;28;20029;-81
2022/02/19 03:08:31;;;;;;;12.47;1.40;;;6.10;75.50;;;;;;5054102;28;20083;-81
2022/02/19 03:10:57;;;;;;;10.80;1.07;;;6.10;75.90;;;;;;5054082;28;20040;-81
2022/02/19 03:13:22;;;;;;;10.27;1.23;;;6.10;76.10;;;;;;5055094;28;20047;-80
2022/02/19 03:15:48;;;;;;;9.37;1.03;;;6.10;75.70;;;;;;5055101;28;20104;-79
2022/02/19 03:18:17;;;;;;;9.13;1.20;;;6.10;76.30;;;;;;5055012;28;20520;-81
2022/02/19 03:20:44;;;;;;;10.83;1.53;;;6.10;76.70;;;;;;5037154;28;20029;-79
2022/02/19 03:23:09;;;;;;;10.17;1.27;;;6.10;77.00;;;;;;5037107;28;20488;-80
2022/02/19 03:25:35;;;;;;;9.10;1.63;;;6.10;76.90;;;;;;5037158;28;20068;-79
2022/02/19 03:28:01;;;;;;;11.73;1.33;;;6.00;77.20;;;;;;5054833;28;20116;-81
2022/02/19 03:30:27;;;;;;;14.67;1.63;;;6.10;77.40;;;;;;5036961;28;20032;-81
2022/02/19 03:32:54;;;;;;;14.07;1.50;;;6.00;77.10;;;;;;5036662;28;20037;-80
2022/02/19 03:35:19;;;;;;;12.43;2.20;;;6.10;77.60;;;;;;5054748;28;20055;-82
2022/02/19 03:37:45;;;;;;;12.10;1.30;;;6.00;77.50;;;;;;5053433;28;20059;-80
2022/02/19 03:40:11;;;;;;;11.17;1.30;;;6.00;77.60;;;;;;5052730;28;20032;-80
2022/02/19 03:42:39;;;;;;;9.07;1.30;;;6.00;78.00;;;;;;5053547;28;20044;-82
2022/02/19 03:45:08;;;;;;;15.27;2.07;;;6.20;78.30;;;;;;5054514;28;20029;-80
2022/02/19 03:47:34;;;;;;;14.40;1.40;;;6.00;78.30;;;;;;5036568;28;20385;-79
2022/02/19 03:50:01;;;;;;;18.93;1.57;;;6.10;78.00;;;;;;5036496;28;20041;-81
2022/02/19 03:52:27;;;;;;;15.87;1.63;;;6.10;78.60;;;;;;5054338;28;20168;-79
2022/02/19 03:54:52;;;;;;;12.60;1.60;;;6.00;78.60;;;;;;5053208;28;20115;-81
2022/02/19 03:57:18;;;;;;;11.50;1.70;;;6.00;78.60;;;;;;5036450;28;20028;-82
2022/02/19 03:59:44;;;;;;;8.80;1.57;;;6.00;78.60;;;;;;5052952;28;20064;-80
2022/02/19 04:02:09;;;;;;;14.17;1.80;;;5.90;78.80;;;;;;5053131;28;20044;-80
2022/02/19 04:04:35;;;;;;;16.30;1.77;;;6.00;79.20;;;;;;5052760;28;20029;-79
2022/02/19 04:07:00;;;;;;;18.40;3.17;;;6.00;78.70;;;;;;5052828;28;20029;-80
2022/02/19 04:09:26;;;;;;;19.70;1.93;;;6.00;78.60;;;;;;5054199;28;20052;-79
2022/02/19 04:11:52;;;;;;;15.53;1.93;;;6.00;78.60;;;;;;5052876;28;20033;-81
2022/02/19 04:14:17;;;;;;;13.20;1.70;;;6.00;78.60;;;;;;5053970;28;20041;-81
2022/02/19 04:16:43;;;;;;;11.50;1.70;;;6.00;78.20;;;;;;5019424;28;20385;-81
2022/02/19 04:19:08;;;;;;;13.47;2.10;;;6.00;78.50;;;;;;5036142;28;20063;-80
2022/02/19 04:21:34;;;;;;;14.53;2.10;;;6.00;77.70;;;;;;5052847;28;20105;-79
2022/02/19 04:23:59;;;;;;;11.67;1.80;;;5.90;77.90;;;;;;5052894;28;20044;-80
2022/02/19 04:26:25;;;;;;;15.10;1.33;;;6.00;77.80;;;;;;5052650;28;20112;-79
2022/02/19 04:28:51;;;;;;;14.90;2.23;;;5.90;78.10;;;;;;5052511;28;20094;-81
2022/02/19 04:31:16;;;;;;;14.33;1.80;;;6.00;77.80;;;;;;5052607;28;20094;-80
2022/02/19 04:33:42;;;;;;;22.63;2.70;;;5.90;77.60;;;;;;5053578;28;20032;-79
2022/02/19 04:36:08;;;;;;;15.73;1.77;;;6.00;77.80;;;;;;5053676;28;20021;-79
2022/02/19 04:38:34;;;;;;;16.97;2.40;;;6.00;77.30;;;;;;5053610;28;20070;-80
2022/02/19 04:40:59;;;;;;;14.20;2.33;;;6.00;77.30;;;;;;5053530;28;20025;-81
2022/02/19 04:43:25;;;;;;;15.53;1.83;;;6.00;76.90;;;;;;5052284;28;20396;-80
2022/02/19 04:45:51;;;;;;;16.40;2.17;;;6.00;77.10;;;;;;5053430;28;20454;-79
2022/02/19 04:48:16;;;;;;;19.30;1.70;;;5.90;77.00;;;;;;5053606;28;20060;-79
2022/02/19 04:50:42;;;;;;;13.23;2.13;;;6.00;77.00;;;;;;5035417;28;20127;-79
2022/02/19 04:53:08;;;;;;;18.13;1.77;;;6.00;76.50;;;;;;5052585;28;20037;-80
2022/02/19 04:55:34;;;;;;;11.57;1.63;;;5.90;76.60;;;;;;5051975;28;20512;-80
2022/02/19 04:58:00;;;;;;;13.30;1.60;;;6.00;76.30;;;;;;5053046;28;20115;-80
2022/02/19 05:00:26;;;;;;;13.10;1.53;;;5.90;76.60;;;;;;5053385;28;20136;-81
2022/02/19 05:02:52;;;;;;;17.00;1.80;;;6.00;76.60;;;;;;5035513;28;20131;-81
2022/02/19 05:05:17;;;;;;;12.53;1.20;;;6.00;76.40;;;;;;5035431;28;20029;-81
2022/02/19 05:07:43;;;;;;;9.77;1.20;;;6.00;76.70;;;;;;5035367;28;20490;-79
2022/02/19 05:10:09;;;;;;;19.30;1.30;;;6.00;76.40;;;;;;5053336;28;20599;-79
2022/02/19 05:12:40;;;;;;;12.70;1.57;;;6.00;76.30;;;;;;5053393;28;20037;-80
2022/02/19 05:15:12;;;;;;;7.43;1.00;;;5.90;77.00;;;;;;5052026;28;20056;-79
2022/02/19 05:17:49;;;;;;;9.27;1.83;;;5.90;76.50;;;;;;5053138;28;20029;-80
2022/02/19 05:20:19;;;;;;;18.03;1.90;;;5.90;76.70;;;;;;5051870;28;20024;-81
2022/02/19 05:22:44;;;;;;;12.93;1.23;;;5.90;76.80;;;;;;5053063;28;20033;-79
2022/02/19 05:25:10;;;;;;;13.13;2.17;;;5.90;77.00;;;;;;5035289;28;20374;-79
2022/02/19 05:27:36;;;;;;;12.97;1.47;;;5.90;76.60;;;;;;5052914;28;20112;-81
2022/02/19 05:30:02;;;;;;;14.03;2.00;;;5.90;76.70;;;;;;5053018;28;20469;-79
2022/02/19 05:32:27;;;;;;;14.97;1.50;;;5.90;77.70;;;;;;5052827;28;20044;-80
2022/02/19 05:34:53;;;;;;;15.07;1.77;;;5.90;78.10;;;;;;5035045;28;20393;-79
2022/02/19 05:37:19;;;;;;;14.60;1.90;;;5.90;78.00;;;;;;5035276;28;20033;-79
2022/02/19 05:39:44;;;;;;;12.53;1.83;;;5.80;78.80;;;;;;5034855;28;20040;-83
2022/02/19 05:42:10;;;;;;;9.20;1.30;;;5.70;78.20;;;;;;5018704;28;20029;-82
2022/02/19 05:44:36;;;;;;;8.47;1.50;;;5.70;78.60;;;;;;5034841;28;20033;-81
2022/02/19 05:47:02;;;;;;;18.60;2.33;;;5.60;79.10;;;;;;5035009;28;20112;-80
2022/02/19 05:49:27;;;;;;;9.20;1.13;;;5.60;79.20;;;;;;5052894;28;20465;-80
2022/02/19 05:51:53;;;;;;;11.00;1.20;;;5.60;79.10;;;;;;5035146;28;20032;-80
2022/02/19 05:54:18;;;;;;;11.37;1.80;;;5.60;78.80;;;;;;5052706;28;20512;-79
2022/02/19 05:56:45;;;;;;;13.73;1.23;;;5.70;78.40;;;;;;5035045;28;20120;-79
2022/02/19 05:59:11;;;;;;;8.83;1.37;;;5.60;77.90;;;;;;5052688;28;20464;-79
2022/02/19 06:01:36;;;;;;;13.10;1.67;;;5.70;78.60;;;;;;5035007;28;20033;-82
2022/02/19 06:04:02;;;;;;;13.73;1.87;;;5.80;78.20;;;;;;5037240;28;20039;-81
2022/02/19 06:06:27;;;;;;;11.77;1.30;;;5.70;78.00;;;;;;5038667;28;20516;-80
2022/02/19 06:08:53;;;;;;;17.83;1.50;;;5.70;78.70;;;;;;5038568;28;20082;-81
2022/02/19 06:11:19;;;;;;;11.23;1.70;;;5.80;78.00;;;;;;5038472;28;20033;-81
2022/02/19 06:13:45;;;;;;;13.93;1.50;;;5.90;78.40;;;;;;5039927;28;20032;-79
2022/02/19 06:16:10;;;;;;;12.67;1.93;;;5.80;78.10;;;;;;5054899;28;20424;-80
2022/02/19 06:18:36;;;;;;;9.33;1.30;;;5.80;78.20;;;;;;5056353;28;20036;-79
2022/02/19 06:21:02;;;;;;;14.23;1.57;;;5.80;78.50;;;;;;5038191;28;20064;-80
2022/02/19 06:23:27;;;;;;;11.27;1.80;;;5.80;78.40;;;;;;5051465;28;20033;-80
2022/02/19 06:25:53;;;;;;;12.70;1.50;;;5.80;78.30;;;;;;5046173;28;20040;-81
2022/02/19 06:28:18;;;;;;;11.03;1.60;;;5.80;78.60;;;;;;5055960;28;20075;-81
2022/02/19 06:30:44;;;;;;;11.87;1.23;;;5.90;79.60;;;;;;5021589;28;20117;-80
2022/02/19 06:33:10;;;;;;;7.30;1.10;;;5.70;80.30;;;;;;5021517;28;20452;-78
2022/02/19 06:35:36;;;;;;;10.87;1.77;;;5.70;80.00;;;;;;5055863;28;20040;-81
2022/02/19 06:38:02;;;;;;;12.73;1.97;;;5.70;79.60;;;;;;5055794;28;20025;-81
2022/02/19 06:40:27;;;;;;;14.23;2.33;;;5.70;79.70;;;;;;5038157;28;20033;-81
2022/02/19 06:42:53;;;;;;;13.13;1.40;;;5.70;79.80;;;;;;5021396;28;20098;-81
2022/02/19 06:45:19;;;;;;;18.43;3.40;;;5.70;79.80;;;;;;5055715;28;20064;-80
2022/02/19 06:47:44;;;;;;;11.03;1.50;;;5.60;79.40;;;;;;5037749;28;20428;-79
2022/02/19 06:50:10;;;;;;;17.97;1.77;;;5.70;79.40;;;;;;5037904;28;20029;-81
2022/02/19 06:52:36;;;;;;;16.80;1.93;;;5.70;79.10;;;;;;5037719;28;20106;-80
2022/02/19 06:55:03;;;;;;;17.43;1.73;;;5.70;79.00;;;;;;5055901;28;20033;-81
2022/02/19 06:57:29;;;;;;;12.50;1.60;;;5.70;79.20;;;;;;5037681;28;20053;-81
2022/02/19 06:59:54;;;;;;;9.13;1.63;;;5.70;79.30;;;;;;5004481;28;20087;-80
2022/02/19 07:02:20;;;;;;;12.90;2.07;;;5.80;79.50;;;;;;5037499;28;20060;-81
2022/02/19 07:04:46;;;;;;;12.80;1.70;;;5.80;79.50;;;;;;5037584;28;20036;-80
2022/02/19 07:07:12;;;;;;;11.13;1.00;;;5.80;79.60;;;;;;5037535;28;20035;-80
2022/02/19 07:09:39;;;;;;;9.93;1.43;;;5.80;79.40;;;;;;5037580;28;20033;-80
2022/02/19 07:12:05;;;;;;;13.03;2.43;;;5.80;79.70;;;;;;5020569;28;20033;-81
2022/02/19 07:14:32;;;;;;;12.40;2.03;;;5.80;79.70;;;;;;5019000;28;20119;-80
2022/02/19 07:17:04;;;;;;;8.97;1.30;;;5.80;79.70;;;;;;5054129;28;20029;-79
2022/02/19 07:19:31;;;;;;;10.80;1.43;;;5.80;79.80;;;;;;5020399;28;20392;-82
2022/02/19 07:21:56;;;;;;;15.53;1.77;;;5.80;79.90;;;;;;5053546;28;20025;-80
2022/02/19 07:24:22;;;;;;;12.60;1.63;;;5.80;80.10;;;;;;5054515;28;20136;-81
2022/02/19 07:26:47;;;;;;;12.63;1.10;;;5.80;80.20;;;;;;5054644;28;20100;-80
2022/02/19 07:29:13;;;;;;;13.93;1.40;;;5.80;80.10;;;;;;5019715;28;20025;-81
2022/02/19 07:31:39;;;;;;;12.70;1.50;;;5.80;80.20;;;;;;5037088;28;20076;-81
2022/02/19 07:34:04;;;;;;;13.60;2.97;;;5.80;79.90;;;;;;5020226;28;20115;-80
2022/02/19 07:36:30;;;;;;;12.43;1.50;;;5.80;80.10;;;;;;5020272;28;20032;-80
2022/02/19 07:38:57;;;;;;;10.47;1.27;;;5.90;80.20;;;;;;5054545;28;20021;-80
2022/02/19 07:41:23;;;;;;;14.10;1.87;;;5.80;80.40;;;;;;5004099;28;20049;-80
2022/02/19 07:43:48;;;;;;;15.50;1.77;;;5.90;80.60;;;;;;5054601;28;20036;-78
2022/02/19 07:46:14;;;;;;;9.80;1.33;;;5.90;80.40;;;;;;5036736;28;20056;-81
2022/02/19 07:48:40;;;;;;;8.97;1.20;;;5.90;80.10;;;;;;5003591;28;20451;-80
2022/02/19 07:58:18;;;;;;;16.85;1.40;;;6.00;80.00;;;;;;5039190;28;20123;-81
2022/02/19 07:59:28;;;;;;;7.90;1.05;;;6.00;80.10;;;;;;5039061;28;20504;-80
2022/02/19 08:01:53;;;;;;;12.17;1.57;;;6.00;80.20;;;;;;5036351;28;20029;-81
2022/02/19 08:04:19;;;;;;;17.37;1.67;;;6.00;80.00;;;;;;5054300;28;20048;-81
2022/02/19 08:06:46;;;;;;;8.97;1.40;;;6.00;80.00;;;;;;5054130;28;20112;-80
2022/02/19 08:09:12;;;;;;;10.23;1.23;;;6.00;79.80;;;;;;5036068;28;20029;-80
2022/02/19 08:11:38;;;;;;;14.23;2.10;;;6.10;79.90;;;;;;5053951;28;20025;-80
2022/02/19 08:14:04;;;;;;;10.10;1.30;;;6.10;80.10;;;;;;5019423;28;20112;-81
2022/02/19 08:16:29;;;;;;;16.50;1.47;;;6.00;79.60;;;;;;5019620;28;20123;-80
2022/02/19 08:18:57;;;;;;;13.00;1.57;;;6.10;79.80;;;;;;5053787;28;20029;-79
2022/02/19 08:21:26;;;;;;;12.17;1.93;;;6.00;80.00;;;;;;5036438;28;20029;-80
2022/02/19 08:23:52;;;;;;;12.43;1.20;;;6.10;80.30;;;;;;5032821;28;20064;-79
2022/02/19 08:26:24;;;;;;;8.60;1.63;;;6.10;80.30;;;;;;5035550;28;20033;-81
2022/02/19 08:28:52;;;;;;;14.43;2.00;;;6.10;80.20;;;;;;5052640;28;20029;-79
2022/02/19 08:31:18;;;;;;;14.80;1.80;;;6.10;80.50;;;;;;5035645;28;20128;-80
2022/02/19 08:33:44;;;;;;;11.53;1.40;;;6.10;80.30;;;;;;5053357;28;20096;-80
2022/02/19 08:36:09;;;;;;;10.50;1.53;;;6.10;80.30;;;;;;5035592;28;20078;-80
2022/02/19 08:38:36;;;;;;;9.80;1.40;;;6.10;80.40;;;;;;5057904;28;20017;-79
2022/02/19 08:41:02;;;;;;;17.67;1.70;;;6.30;80.60;;;;;;5069809;28;20354;-78
2022/02/19 08:43:27;;;;;;;17.57;2.50;;;6.20;80.50;;;;;;5053415;28;20483;-79
2022/02/19 08:45:53;;;;;;;17.23;2.07;;;6.30;80.40;;;;;;5035396;28;20033;-78
2022/02/19 08:48:19;;;;;;;14.07;1.80;;;6.30;80.10;;;;;;5002788;28;20036;-80
2022/02/19 08:50:44;;;;;;;14.47;1.50;;;6.30;80.20;;;;;;5035442;28;20535;-80
2022/02/19 08:53:12;;;;;;;14.70;1.53;;;6.30;80.20;;;;;;5053440;28;20025;-80
2022/02/19 08:55:39;;;;;;;10.50;1.17;;;6.40;80.40;;;;;;5035469;28;20055;-80
2022/02/19 08:58:05;;;;;;;15.50;2.10;;;6.40;80.50;;;;;;5035904;28;20048;-82
2022/02/19 09:00:31;;;;;;;12.73;1.90;;;6.40;79.70;;;;;;5018979;28;20525;-80
2022/02/19 09:02:57;;;;;;;15.80;2.20;;;6.50;80.40;;;;;;5053363;28;20112;-80
2022/02/19 09:05:23;;;;;;;15.17;2.03;;;6.50;79.00;;;;;;5019150;28;20036;-80
2022/02/19 09:07:49;;;;;;;15.33;1.83;;;6.60;78.80;;;;;;5053180;28;20029;-78
2022/02/19 09:10:16;;;;;;;9.93;1.53;;;6.80;79.20;;;;;;5018869;28;20389;-78
2022/02/19 09:12:46;;;;;;;11.80;1.70;;;6.60;80.00;;;;;;5035238;28;20033;-81
2022/02/19 09:15:18;;;;;;;11.70;1.47;;;6.80;79.10;;;;;;5053163;28;20057;-79
2022/02/19 09:17:44;;;;;;;13.23;1.83;;;6.80;77.90;;;;;;5053077;28;20477;-79
2022/02/19 09:20:11;;;;;;;19.03;1.93;;;6.90;77.80;;;;;;5053121;28;20358;-81
2022/02/19 09:22:38;;;;;;;15.33;1.70;;;6.90;78.50;;;;;;5053071;28;20061;-79
2022/02/19 09:25:06;;;;;;;10.90;1.30;;;7.00;79.00;;;;;;5018806;28;20036;-80
2022/02/19 09:27:35;;;;;;;8.07;1.27;;;7.10;78.80;;;;;;5035197;28;20025;-80
2022/02/19 09:30:03;;;;;;;13.53;1.90;;;7.10;78.70;;;;;;5019066;28;20032;-80
2022/02/19 09:32:28;;;;;;;15.23;1.47;;;7.10;77.20;;;;;;5035085;28;20025;-79
2022/02/19 09:34:54;;;;;;;11.33;1.43;;;7.10;77.60;;;;;;5035246;28;20032;-81
2022/02/19 09:37:20;;;;;;;8.93;2.00;;;7.10;77.80;;;;;;5018660;28;20017;-81
2022/02/19 09:39:46;;;;;;;7.77;1.57;;;7.20;77.70;;;;;;5005937;28;20021;-81
2022/02/19 09:42:12;;;;;;;10.23;1.60;;;7.20;77.30;;;;;;5038914;28;20385;-84
2022/02/19 09:44:39;;;;;;;14.70;1.90;;;7.20;76.90;;;;;;5038870;28;20029;-80
2022/02/19 09:47:06;;;;;;;14.57;1.57;;;7.20;77.00;;;;;;5056807;28;20021;-79
2022/02/19 09:49:34;;;;;;;12.70;2.47;;;7.30;77.40;;;;;;5038833;28;20090;-83
2022/02/19 09:52:00;;;;;;;9.27;1.40;;;7.30;77.20;;;;;;5056646;28;20075;-82
2022/02/19 09:54:26;;;;;;;16.20;2.60;;;7.30;77.40;;;;;;5056790;28;20033;-81
2022/02/19 09:56:51;;;;;;;9.30;1.77;;;7.30;77.90;;;;;;5056655;28;20029;-79
2022/02/19 09:59:17;;;;;;;14.60;1.83;;;7.30;78.20;;;;;;5056364;28;20036;-82
2022/02/19 10:01:43;;;;;;;9.40;1.10;;;7.40;78.70;;;;;;5038609;28;20043;-82
2022/02/19 10:04:08;;;;;;;17.70;1.87;;;7.40;78.90;;;;;;5038778;28;20028;-79
2022/02/19 10:06:36;;;;;;;14.17;1.53;;;7.60;77.50;;;;;;5056363;28;20052;-79
2022/02/19 10:09:19;;;;;;;12.00;1.50;;;7.70;77.10;;;;;;5031418;28;20440;-81
2022/02/19 10:11:47;;;;;;;10.43;1.30;;;8.10;76.50;;;;;;5054382;28;20029;-82
2022/02/19 10:14:25;;;;;;;8.33;1.13;;;8.10;76.10;;;;;;5055120;28;20508;-83
2022/02/19 10:17:13;;;;;;;13.97;1.20;;;8.30;75.70;;;;;;5055820;28;20051;-82
2022/02/19 10:20:04;;;;;;;11.33;1.10;;;8.50;74.40;;;;;;5056003;28;20047;-83
2022/02/19 10:22:37;;;;;;;12.07;1.50;;;9.00;75.50;;;;;;5056088;28;20024;-83
2022/02/19 10:25:13;;;;;;;13.03;2.27;;;9.20;72.10;;;;;;5038206;28;20300;-81
2022/02/19 10:28:04;;;;;;;12.15;1.45;;;9.50;73.10;;;;;;5038148;28;20473;-83
2022/02/19 10:30:30;;;;;;;13.75;1.42;;;10.10;72.00;;;;;;5056239;28;20052;-82
2022/02/19 10:32:59;;;;;;;14.05;1.75;;;10.60;70.80;;;;;;5037967;28;20060;-79
2022/02/19 10:35:40;;;;;;;9.15;1.50;;;10.80;67.90;;;;;;5055886;28;20033;-83
2022/02/19 10:38:12;;;;;;;11.63;1.02;;;10.80;67.60;;;;;;5056096;28;20025;-82
2022/02/19 10:40:39;;;;;;;12.55;1.45;;;10.70;67.60;;;;;;5056011;28;20029;-82
2022/02/19 10:43:19;;;;;;;10.00;1.58;;;10.60;67.10;;;;;;5055699;28;20416;-80
2022/02/19 10:45:57;;;;;;;9.75;1.58;;;10.40;67.10;;;;;;5037796;28;20036;-82
2022/02/19 10:48:40;;;;;;;11.32;1.23;;;10.10;65.50;;;;;;5054430;28;20078;-80
2022/02/19 10:51:12;;;;;;;11.77;1.92;;;9.80;64.30;;;;;;5055597;28;20025;-80
2022/02/19 10:53:39;;;;;;;11.03;1.50;;;9.50;65.30;;;;;;5055485;28;20380;-81
2022/02/19 10:56:13;;;;;;;9.95;1.35;;;9.60;67.90;;;;;;5054219;28;20025;-81
2022/02/19 10:58:56;;;;;;;11.15;1.38;;;10.20;69.10;;;;;;5055531;28;20377;-82
2022/02/19 11:01:22;;;;;;;7.18;1.60;;;10.90;67.30;;;;;;5037440;28;20052;-82
2022/02/19 11:03:48;;;;;;;7.90;1.27;;;11.60;66.40;;;;;;5054176;28;20033;-83
2022/02/19 11:06:15;;;;;;;13.68;1.73;;;11.90;63.60;;;;;;5037452;28;20025;-82
2022/02/19 11:08:44;;;;;;;11.30;1.65;;;12.00;63.60;;;;;;5054104;28;20036;-84
2022/02/19 11:11:11;;;;;;;8.82;1.45;;;12.20;64.70;;;;;;5037786;28;20025;-82
2022/02/19 11:13:38;;;;;;;9.57;1.73;;;12.60;62.70;;;;;;5053871;28;20044;-82
2022/02/19 11:16:07;;;;;;;7.78;1.30;;;12.60;61.60;;;;;;5054979;28;20120;-84
2022/02/19 11:18:36;;;;;;;12.27;1.88;;;12.30;62.00;;;;;;5037427;28;20017;-84
2022/02/19 11:21:03;;;;;;;15.38;2.35;;;12.40;62.90;;;;;;5055125;28;20070;-82
2022/02/19 11:23:34;;;;;;;11.20;1.50;;;12.70;61.40;;;;;;5037079;28;20116;-83
2022/02/19 11:26:01;;;;;;;12.15;1.80;;;12.60;59.90;;;;;;5036963;28;20048;-83
2022/02/19 11:28:32;;;;;;;8.90;1.10;;;12.50;60.40;;;;;;5054728;28;20473;-83
2022/02/19 11:30:58;;;;;;;9.48;1.15;;;12.80;60.60;;;;;;5054860;28;20028;-83
2022/02/19 11:33:27;;;;;;;7.22;1.38;;;13.20;59.50;;;;;;5036869;28;20025;-85
2022/02/19 11:35:57;;;;;;;7.45;1.00;;;13.30;59.00;;;;;;5036883;28;20017;-81
2022/02/19 11:38:30;;;;;;;9.35;1.40;;;13.20;58.70;;;;;;5054817;28;20052;-84
2022/02/19 11:41:12;;;;;;;5.05;0.95;;;13.10;57.90;;;;;;5036765;28;20070;-81
2022/02/19 11:43:38;;;;;;;6.32;1.02;;;12.70;56.30;;;;;;5036584;28;20029;-86
2022/02/19 11:46:15;;;;;;;9.20;1.13;;;12.00;55.50;;;;;;5054580;28;20029;-85
2022/02/19 11:48:51;;;;;;;9.63;1.52;;;11.50;56.80;;;;;;5054357;28;20533;-80
2022/02/19 11:51:24;;;;;;;8.98;1.23;;;11.20;58.40;;;;;;5054691;28;20025;-85
2022/02/19 11:54:01;;;;;;;7.30;1.10;;;11.40;59.80;;;;;;5054401;28;20108;-79
2022/02/19 11:56:36;;;;;;;13.50;1.30;;;12.10;60.50;;;;;;5054081;28;20486;-82
2022/02/19 11:59:04;;;;;;;9.65;1.20;;;12.80;59.20;;;;;;5054648;28;20469;-83
2022/02/19 12:01:30;;;;;;;9.27;1.23;;;13.30;57.60;;;;;;5053824;28;20037;-81
2022/02/19 12:04:19;;;;;;;9.85;1.65;;;13.50;56.60;;;;;;5053126;28;20024;-83
2022/02/19 12:07:14;;;;;;;10.98;1.13;;;13.80;56.60;;;;;;5053015;28;20083;-83
2022/02/19 12:09:58;;;;;;;;;;;13.70;55.00;;;;;;5054372;28;20462;-83
2022/02/19 12:12:24;;;;;;;10.48;1.30;;;13.40;55.20;;;;;;5053942;28;20426;-80
2022/02/19 12:14:53;;;;;;;6.30;0.98;;;12.90;55.80;;;;;;5054159;28;20064;-85
2022/02/19 12:17:20;;;;;;;6.82;1.00;;;12.60;56.80;;;;;;5035983;28;20104;-82
2022/02/19 12:19:53;;;;;;;10.13;1.05;;;12.70;57.40;;;;;;5036093;28;20410;-83
2022/02/19 12:22:32;;;;;;;9.02;1.20;;;12.80;56.50;;;;;;5053770;28;20103;-85
2022/02/19 12:24:58;;;;;;;11.38;1.33;;;12.50;56.90;;;;;;5052352;28;20036;-80
2022/02/19 12:27:25;;;;;;;10.40;1.58;;;12.00;56.60;;;;;;5053569;28;20104;-81
2022/02/19 12:29:51;;;;;;;10.98;1.40;;;11.70;57.50;;;;;;5053750;28;20131;-80
2022/02/19 12:32:22;;;;;;;8.48;1.00;;;11.40;58.50;;;;;;5053643;28;20029;-84
2022/02/19 12:34:53;;;;;;;9.18;1.45;;;11.60;59.50;;;;;;5053643;28;20432;-81
2022/02/19 12:37:20;;;;;;;8.43;1.35;;;11.90;58.50;;;;;;5053725;28;20025;-80
2022/02/19 12:39:58;;;;;;;6.30;1.27;;;12.00;56.70;;;;;;5035528;28;20029;-82
2022/02/19 12:42:28;;;;;;;11.65;1.23;;;12.00;57.60;;;;;;5035668;28;20040;-83
2022/02/19 12:45:05;;;;;;;7.85;1.05;;;12.50;58.70;;;;;;5048693;28;20025;-79
2022/02/19 12:47:36;;;;;;;9.77;1.30;;;12.70;57.10;;;;;;5025174;28;20083;-80
2022/02/19 12:50:04;;;;;;;6.75;1.08;;;12.90;55.80;;;;;;5033162;28;20029;-81
2022/02/19 12:52:30;;;;;;;7.53;1.20;;;13.20;55.00;;;;;;5033350;28;20036;-79
2022/02/19 12:54:56;;;;;;;9.00;1.05;;;13.40;55.00;;;;;;5031750;28;20428;-86